Time;durP1;ratioP1;P1;durP2;ratioP2;P2;SDS_P1;SDS_P2;PMS_P1;PMS_P2;Temp;Humidity;BMP_temperature;BMP_pressure;BME280_temperature;BME280_humidity;BME280_pressure;Samples;Min_cycle;Max_cycle;Signal;HPM_P1;HPM_P2
2022/08/17 00:02:21;;;;;;;15.80;6.57;;;23.20;60.60;;;;;;5055959;28;20492;-39
2022/08/17 00:04:48;;;;;;;9.18;6.43;;;23.10;61.10;;;;;;5057082;28;20096;-40
2022/08/17 00:07:13;;;;;;;7.65;6.57;;;22.90;61.40;;;;;;5055693;28;20021;-38
2022/08/17 00:09:39;;;;;;;8.55;6.78;;;22.80;61.70;;;;;;5055820;28;20096;-39
2022/08/17 00:12:05;;;;;;;9.57;5.82;;;22.90;61.70;;;;;;5056813;28;20065;-39
2022/08/17 00:14:31;;;;;;;10.15;7.13;;;22.90;61.70;;;;;;5057554;28;20025;-39
2022/08/17 00:16:57;;;;;;;7.30;6.13;;;22.90;61.90;;;;;;5057040;28;20100;-39
2022/08/17 00:19:24;;;;;;;9.90;6.65;;;23.00;61.60;;;;;;5055796;28;20024;-39
2022/08/17 00:21:52;;;;;;;12.30;7.15;;;22.80;61.90;;;;;;5056868;28;20516;-39
2022/08/17 00:24:18;;;;;;;8.68;6.28;;;22.80;62.40;;;;;;5056732;28;20476;-39
2022/08/17 00:26:45;;;;;;;13.35;6.95;;;22.80;62.00;;;;;;5056885;28;20025;-39
2022/08/17 00:29:11;;;;;;;11.15;6.85;;;22.80;62.00;;;;;;5056852;28;20037;-44
2022/08/17 00:31:37;;;;;;;8.98;7.07;;;22.80;62.10;;;;;;5056942;28;20025;-38
2022/08/17 00:34:05;;;;;;;9.93;6.68;;;22.80;62.20;;;;;;5056758;28;20071;-39
2022/08/17 00:36:30;;;;;;;14.05;7.50;;;22.70;62.60;;;;;;5056635;28;20025;-39
2022/08/17 00:38:56;;;;;;;10.20;7.07;;;22.60;62.70;;;;;;5055876;28;20079;-40
2022/08/17 00:41:25;;;;;;;8.65;7.22;;;22.60;63.00;;;;;;5055723;28;20025;-48
2022/08/17 00:43:59;;;;;;;14.07;7.67;;;22.50;63.10;;;;;;5055594;28;20029;-38
2022/08/17 00:46:38;;;;;;;9.68;6.75;;;22.50;63.40;;;;;;5055649;28;20049;-39
2022/08/17 00:49:04;;;;;;;7.93;7.13;;;22.30;63.60;;;;;;5055546;28;20032;-39
2022/08/17 00:51:47;;;;;;;9.32;7.18;;;22.30;63.90;;;;;;5055296;28;20036;-39
2022/08/17 00:54:21;;;;;;;12.70;7.70;;;22.30;64.00;;;;;;5054136;28;20025;-41
2022/08/17 00:57:05;;;;;;;11.50;7.47;;;22.30;64.20;;;;;;5055995;28;20457;-39
2022/08/17 00:59:37;;;;;;;11.27;8.07;;;22.20;64.40;;;;;;5055479;28;20029;-38
2022/08/17 01:02:05;;;;;;;13.63;8.48;;;22.20;64.60;;;;;;5053986;28;20082;-38
2022/08/17 01:04:32;;;;;;;10.65;8.07;;;22.20;64.80;;;;;;5055377;28;20539;-39
2022/08/17 01:06:59;;;;;;;8.73;7.70;;;22.10;64.80;;;;;;5053785;28;20025;-39
2022/08/17 01:09:26;;;;;;;16.17;10.13;;;22.10;64.90;;;;;;5055102;28;20079;-38
2022/08/17 01:11:51;;;;;;;14.98;8.77;;;22.20;64.80;;;;;;5053599;28;20148;-39
2022/08/17 01:14:20;;;;;;;13.07;8.88;;;22.10;64.90;;;;;;5053829;28;20096;-38
2022/08/17 01:16:48;;;;;;;10.07;7.50;;;22.20;64.90;;;;;;5055087;28;20036;-38
2022/08/17 01:19:19;;;;;;;12.30;8.98;;;22.20;65.10;;;;;;5055187;28;20064;-39
2022/08/17 01:22:10;;;;;;;11.18;8.55;;;22.10;65.30;;;;;;5055591;28;20044;-38
2022/08/17 01:24:38;;;;;;;11.77;8.57;;;22.10;65.30;;;;;;5055166;28;20477;-38
2022/08/17 01:27:05;;;;;;;10.43;8.20;;;22.00;65.50;;;;;;5054994;28;20423;-39
2022/08/17 01:29:31;;;;;;;11.82;8.50;;;22.00;65.70;;;;;;5054859;28;20028;-39
2022/08/17 01:32:02;;;;;;;10.60;8.52;;;22.00;65.80;;;;;;5054864;28;20476;-39
2022/08/17 01:34:29;;;;;;;10.57;8.38;;;21.90;66.00;;;;;;5054923;28;20433;-39
2022/08/17 01:36:54;;;;;;;14.73;8.50;;;21.90;66.10;;;;;;5054732;28;20044;-37
2022/08/17 01:39:26;;;;;;;17.58;9.38;;;21.90;66.20;;;;;;5053060;28;20554;-38
2022/08/17 01:41:57;;;;;;;10.43;8.52;;;22.00;66.10;;;;;;5053254;28;20362;-38
2022/08/17 01:44:25;;;;;;;9.65;8.32;;;22.00;66.10;;;;;;5054873;28;20047;-39
2022/08/17 01:46:51;;;;;;;12.00;9.50;;;22.10;65.50;;;;;;5054468;28;20021;-38
2022/08/17 01:49:18;;;;;;;9.60;8.45;;;22.00;65.80;;;;;;5054661;28;20547;-39
2022/08/17 01:51:44;;;;;;;11.13;8.13;;;21.80;66.20;;;;;;5054085;28;20035;-37
2022/08/17 01:54:13;;;;;;;10.35;8.75;;;21.80;66.50;;;;;;5054537;28;20552;-39
2022/08/17 01:56:43;;;;;;;9.13;8.10;;;21.80;66.70;;;;;;5054301;28;20021;-38
2022/08/17 01:59:09;;;;;;;11.05;8.68;;;21.80;66.90;;;;;;5054034;28;20396;-38
2022/08/17 02:01:35;;;;;;;12.82;8.80;;;21.70;66.90;;;;;;5054296;28;20166;-39
2022/08/17 02:04:02;;;;;;;9.73;8.05;;;21.70;67.00;;;;;;5054628;28;20036;-39
2022/08/17 02:06:33;;;;;;;11.85;8.05;;;21.70;67.30;;;;;;5054312;28;20025;-40
2022/08/17 02:08:59;;;;;;;12.18;8.55;;;21.60;67.50;;;;;;5054026;28;20437;-38
2022/08/17 02:11:25;;;;;;;17.42;9.60;;;21.50;67.50;;;;;;5052283;28;20084;-38
2022/08/17 02:13:51;;;;;;;9.05;8.13;;;21.50;67.70;;;;;;5054764;28;20029;-38
2022/08/17 02:16:17;;;;;;;9.82;8.25;;;21.40;67.90;;;;;;5053788;28;20025;-38
2022/08/17 02:18:43;;;;;;;12.70;8.20;;;21.50;67.80;;;;;;5052879;28;20017;-38
2022/08/17 02:21:09;;;;;;;10.20;8.20;;;21.40;67.90;;;;;;5053086;28;20379;-38
2022/08/17 02:23:39;;;;;;;11.18;8.32;;;21.50;67.80;;;;;;5053709;28;20495;-39
2022/08/17 02:26:05;;;;;;;12.15;8.45;;;21.40;67.90;;;;;;5052290;28;20091;-38
2022/08/17 02:28:31;;;;;;;10.20;9.02;;;21.40;67.90;;;;;;5054002;28;20025;-37
2022/08/17 02:31:02;;;;;;;11.23;8.77;;;21.30;68.10;;;;;;5052031;28;20102;-37
2022/08/17 02:33:28;;;;;;;10.48;9.07;;;21.30;68.30;;;;;;5053630;28;20358;-37
2022/08/17 02:35:54;;;;;;;16.05;8.95;;;21.30;68.40;;;;;;5053441;28;20027;-38
2022/08/17 02:38:19;;;;;;;10.02;8.73;;;21.30;68.50;;;;;;5053067;28;20366;-38
2022/08/17 02:40:46;;;;;;;12.05;9.43;;;21.30;68.70;;;;;;5051708;28;20071;-38
2022/08/17 02:43:12;;;;;;;10.50;8.90;;;21.30;68.60;;;;;;5051965;28;20150;-38
2022/08/17 02:45:38;;;;;;;13.23;8.45;;;21.30;68.70;;;;;;5053072;28;20028;-37
2022/08/17 02:48:04;;;;;;;11.77;8.65;;;21.30;69.00;;;;;;5052794;28;20377;-39
2022/08/17 02:50:30;;;;;;;11.63;9.38;;;21.20;68.90;;;;;;5052727;28;20473;-39
2022/08/17 02:52:56;;;;;;;12.35;9.45;;;21.10;69.10;;;;;;5052965;28;20029;-38
2022/08/17 02:55:28;;;;;;;11.70;9.98;;;21.00;69.30;;;;;;5052646;28;20025;-39
2022/08/17 02:57:54;;;;;;;15.65;10.63;;;21.00;69.50;;;;;;5052705;28;20064;-38
2022/08/17 03:00:27;;;;;;;11.38;10.20;;;21.00;69.30;;;;;;5052773;28;20025;-38
2022/08/17 03:02:55;;;;;;;14.70;10.68;;;21.00;69.30;;;;;;5052659;28;20021;-38
2022/08/17 03:05:24;;;;;;;18.50;9.95;;;21.10;68.90;;;;;;5052636;28;20112;-38
2022/08/17 03:07:51;;;;;;;15.10;11.85;;;21.00;68.90;;;;;;5052490;28;20021;-38
2022/08/17 03:10:18;;;;;;;16.38;11.13;;;21.00;68.70;;;;;;5052400;28;20045;-38
2022/08/17 03:12:44;;;;;;;15.82;11.88;;;21.00;68.80;;;;;;5052446;28;20025;-38
2022/08/17 03:15:24;;;;;;;16.08;12.63;;;21.00;69.00;;;;;;5051810;28;20021;-39
2022/08/17 03:17:51;;;;;;;16.92;11.43;;;20.90;69.30;;;;;;5053036;28;20436;-39
2022/08/17 03:20:18;;;;;;;15.43;12.07;;;21.00;68.90;;;;;;5052695;28;20120;-38
2022/08/17 03:22:48;;;;;;;21.50;13.25;;;20.90;69.10;;;;;;5051425;28;20029;-38
2022/08/17 03:25:17;;;;;;;20.50;13.00;;;20.80;69.30;;;;;;5052757;28;20075;-38
2022/08/17 03:27:43;;;;;;;16.58;13.45;;;20.80;69.40;;;;;;5051386;28;20029;-37
2022/08/17 03:30:11;;;;;;;25.27;13.25;;;20.80;69.50;;;;;;5052536;28;20415;-37
2022/08/17 03:32:39;;;;;;;16.17;13.70;;;20.80;69.80;;;;;;5054389;28;20025;-39
2022/08/17 03:35:05;;;;;;;21.42;12.27;;;20.70;69.80;;;;;;5056932;28;20029;-38
2022/08/17 03:37:31;;;;;;;17.48;12.95;;;20.70;70.00;;;;;;5056516;28;20056;-38
2022/08/17 03:39:57;;;;;;;18.42;13.07;;;20.70;69.90;;;;;;5056859;28;20021;-38
2022/08/17 03:42:24;;;;;;;17.42;12.52;;;20.70;69.90;;;;;;5056417;28;20025;-39
2022/08/17 03:44:52;;;;;;;18.67;13.65;;;20.70;70.20;;;;;;5056506;28;20021;-38
2022/08/17 03:58:22;;;;;;;15.55;13.23;;;20.40;71.10;;;;;;5057110;28;20531;-38
2022/08/17 04:00:49;;;;;;;17.92;14.30;;;20.40;71.20;;;;;;5056377;28;20086;-39
2022/08/17 04:03:15;;;;;;;15.50;13.30;;;20.30;71.40;;;;;;5056171;28;20032;-39
2022/08/17 19:10:38;;;;;;;38.65;28.98;;;22.40;75.90;;;;;;5071233;28;20444;-47
2022/08/17 19:13:11;;;;;;;47.05;33.85;;;22.30;76.20;;;;;;5070637;28;20039;-46
2022/08/17 19:16:06;;;;;;;40.55;30.40;;;22.40;76.30;;;;;;5070635;28;20427;-46
2022/08/17 19:18:38;;;;;;;41.03;31.92;;;22.40;76.20;;;;;;5052282;28;20163;-50
2022/08/17 19:21:36;;;;;;;41.15;32.47;;;22.40;76.30;;;;;;5070034;28;20020;-49
2022/08/17 19:24:20;;;;;;;41.20;33.03;;;22.30;76.30;;;;;;5069654;28;20111;-49
2022/08/17 19:27:02;;;;;;;41.83;34.30;;;22.30;76.60;;;;;;5070254;28;20020;-48
2022/08/17 19:29:43;;;;;;;45.65;35.40;;;22.30;76.90;;;;;;5069843;28;20033;-47
2022/08/17 19:32:10;;;;;;;46.80;35.05;;;22.20;77.40;;;;;;5070295;28;20028;-49
2022/08/17 19:34:41;;;;;;;41.78;33.22;;;22.20;77.50;;;;;;5069846;28;20021;-47
2022/08/17 19:37:26;;;;;;;48.80;36.42;;;22.20;77.60;;;;;;5068590;28;20028;-47
2022/08/17 19:39:54;;;;;;;50.33;36.35;;;22.10;77.90;;;;;;5069845;28;20072;-48
2022/08/17 19:43:06;;;;;;;48.42;35.33;;;22.10;78.10;;;;;;5069834;28;20056;-48
2022/08/17 19:46:08;;;;;;;48.00;36.20;;;22.10;77.90;;;;;;5053772;28;20397;-47
2022/08/17 19:49:09;;;;;;;42.90;34.92;;;22.10;78.10;;;;;;5068222;28;20025;-50
2022/08/17 19:51:39;;;;;;;45.00;36.83;;;22.00;78.30;;;;;;5069601;28;20056;-47
2022/08/17 19:54:08;;;;;;;47.97;38.00;;;22.00;78.40;;;;;;5068478;28;20032;-47
2022/08/17 19:56:41;;;;;;;46.28;37.63;;;22.00;78.50;;;;;;5069847;28;20017;-47
2022/08/17 19:59:22;;;;;;;51.80;37.70;;;22.00;78.50;;;;;;5068340;28;20193;-49
2022/08/17 20:02:17;;;;;;;48.85;38.42;;;22.00;78.60;;;;;;5068089;28;20107;-49
2022/08/17 20:04:48;;;;;;;55.92;41.85;;;22.00;78.60;;;;;;5068188;28;20488;-48
2022/08/17 20:07:22;;;;;;;53.53;41.30;;;22.10;78.60;;;;;;5069225;28;20381;-46
2022/08/17 20:09:59;;;;;;;52.13;41.63;;;22.10;78.40;;;;;;5069481;28;20033;-47
2022/08/17 20:12:33;;;;;;;57.92;42.70;;;22.00;78.60;;;;;;5069542;28;20468;-49
2022/08/17 20:15:07;;;;;;;55.50;39.55;;;21.90;78.80;;;;;;5070026;28;20028;-47
2022/08/17 20:17:43;;;;;;;54.15;38.42;;;21.90;79.00;;;;;;5069308;28;20048;-46
2022/08/17 20:20:33;;;;;;;54.58;41.63;;;21.90;79.20;;;;;;5064673;28;20055;-47
2022/08/17 20:23:16;;;;;;;54.05;40.78;;;21.80;79.30;;;;;;5052403;28;20048;-48
2022/08/17 20:25:49;;;;;;;62.75;44.63;;;21.80;79.50;;;;;;5055854;28;20025;-49
2022/08/17 20:28:29;;;;;;;61.58;45.28;;;21.80;79.70;;;;;;5055595;28;20358;-47
2022/08/17 20:30:57;;;;;;;59.35;45.38;;;21.70;80.20;;;;;;5056279;28;20464;-47
2022/08/17 20:33:30;;;;;;;61.33;45.83;;;21.60;80.50;;;;;;5055560;28;20043;-47
2022/08/17 20:36:17;;;;;;;59.83;44.95;;;21.50;80.80;;;;;;5054907;28;20461;-46
2022/08/17 20:38:58;;;;;;;58.72;45.53;;;21.50;80.90;;;;;;5055726;28;20025;-46
2022/08/17 20:41:29;;;;;;;59.03;46.10;;;21.40;81.30;;;;;;5055484;28;20025;-47
2022/08/17 20:43:55;;;;;;;69.68;48.10;;;21.40;81.30;;;;;;5053849;28;20025;-46
2022/08/17 20:46:39;;;;;;;61.03;43.67;;;21.40;81.40;;;;;;5055765;28;20052;-46
2022/08/17 20:49:07;;;;;;;60.90;44.78;;;21.30;81.60;;;;;;5055318;28;20473;-48
2022/08/17 20:51:54;;;;;;;62.05;45.95;;;21.30;81.70;;;;;;5055207;28;20029;-47
2022/08/17 20:54:28;;;;;;;55.78;43.70;;;21.30;81.40;;;;;;5055484;28;20017;-48
2022/08/17 20:56:56;;;;;;;57.05;42.97;;;21.30;81.40;;;;;;5055648;28;20032;-47
2022/08/17 20:59:26;;;;;;;53.40;42.28;;;21.30;81.30;;;;;;5053946;28;20029;-47
2022/08/17 21:02:08;;;;;;;52.17;39.60;;;21.40;80.80;;;;;;5055094;28;20115;-48
2022/08/17 21:04:53;;;;;;;50.58;39.35;;;21.30;80.70;;;;;;5055238;28;20489;-48
2022/08/17 21:07:37;;;;;;;52.78;39.25;;;21.30;80.70;;;;;;5055794;28;20067;-47
2022/08/17 21:10:34;;;;;;;52.08;40.08;;;21.30;81.00;;;;;;5054776;28;20052;-48
2022/08/17 21:13:14;;;;;;;52.08;41.40;;;21.30;81.00;;;;;;5053582;28;20057;-48
2022/08/17 21:15:52;;;;;;;52.60;41.65;;;21.20;81.20;;;;;;5054187;28;20420;-49
2022/08/17 21:18:37;;;;;;;54.75;42.35;;;21.20;81.70;;;;;;5055614;28;20384;-48
2022/08/17 21:21:43;;;;;;;57.42;37.65;;;21.20;81.50;;;;;;5054292;28;20409;-47
2022/08/17 21:24:47;;;;;;;53.15;39.72;;;21.20;81.60;;;;;;5055335;28;20029;-47
2022/08/17 21:27:35;;;;;;;52.72;41.53;;;21.20;81.60;;;;;;5053737;28;20021;-46
2022/08/17 21:30:04;;;;;;;48.67;40.05;;;21.00;82.00;;;;;;5054685;28;20024;-47
2022/08/17 21:32:32;;;;;;;55.45;42.60;;;21.00;82.30;;;;;;5054529;28;20032;-47
2022/08/17 21:35:10;;;;;;;51.25;40.90;;;20.90;82.60;;;;;;5055188;28;20029;-48
2022/08/17 21:37:45;;;;;;;55.83;41.25;;;20.90;82.50;;;;;;5054371;28;20025;-46
2022/08/17 21:40:16;;;;;;;52.72;40.63;;;20.90;82.50;;;;;;5054113;28;20031;-46
2022/08/17 21:42:49;;;;;;;50.65;39.17;;;20.80;82.60;;;;;;5054389;28;20095;-46
2022/08/17 21:45:29;;;;;;;50.25;39.10;;;20.80;82.60;;;;;;5054760;28;20083;-47
2022/08/17 21:48:20;;;;;;;51.10;38.33;;;20.80;82.50;;;;;;5052898;28;20025;-48
2022/08/17 21:51:09;;;;;;;48.60;37.65;;;20.80;82.50;;;;;;5054492;28;20126;-47
2022/08/17 21:53:54;;;;;;;51.08;38.78;;;20.80;82.30;;;;;;5052915;28;20112;-47
2022/08/17 21:56:29;;;;;;;55.40;41.35;;;20.80;82.70;;;;;;5054355;28;20476;-47
2022/08/17 21:59:23;;;;;;;54.83;42.17;;;20.80;82.80;;;;;;5052877;28;20029;-49
2022/08/17 22:02:02;;;;;;;56.67;42.38;;;20.80;83.00;;;;;;5053300;28;20036;-47
2022/08/17 22:04:33;;;;;;;56.15;42.10;;;20.80;82.90;;;;;;5053300;28;20054;-48
2022/08/17 22:07:07;;;;;;;55.58;42.63;;;20.80;83.10;;;;;;5054264;28;20025;-49
2022/08/17 22:09:48;;;;;;;56.92;41.80;;;20.70;82.90;;;;;;5053871;28;20048;-48
2022/08/17 22:12:17;;;;;;;52.22;40.22;;;20.80;83.20;;;;;;5052611;28;20385;-46
2022/08/17 22:14:55;;;;;;;56.85;42.25;;;20.70;83.10;;;;;;5054093;28;20381;-47
2022/08/17 22:17:33;;;;;;;60.60;43.75;;;20.70;83.20;;;;;;5054036;28;20033;-46
2022/08/17 22:20:07;;;;;;;60.10;43.22;;;20.70;83.20;;;;;;5054224;28;20041;-46
2022/08/17 22:25:25;;;;;;;66.95;46.55;;;20.70;83.60;;;;;;5054360;28;20048;-47
2022/08/17 22:27:54;;;;;;;65.72;48.15;;;20.50;83.70;;;;;;5053450;28;20500;-48
2022/08/17 22:30:41;;;;;;;59.35;44.40;;;20.50;84.00;;;;;;5053394;28;20017;-48
2022/08/17 22:33:31;;;;;;;60.78;46.03;;;20.40;84.20;;;;;;5053658;28;20472;-47
2022/08/17 22:36:26;;;;;;;59.55;44.47;;;20.30;84.50;;;;;;5053851;28;20021;-47
2022/08/17 22:39:00;;;;;;;67.03;47.45;;;20.20;84.80;;;;;;5048507;28;20128;-47
2022/08/17 22:41:33;;;;;;;63.55;45.50;;;20.20;84.90;;;;;;5053268;28;20415;-47
2022/08/17 22:44:28;;;;;;;70.97;50.17;;;20.20;85.00;;;;;;5053147;28;20033;-46
2022/08/17 22:47:25;;;;;;;64.75;47.42;;;20.20;85.10;;;;;;5053776;28;20071;-53
2022/08/17 22:50:10;;;;;;;70.60;49.35;;;20.10;85.20;;;;;;5052922;28;20056;-47
2022/08/17 23:01:21;;;;;;;73.63;51.83;;;19.80;86.10;;;;;;5053235;28;20036;-45
2022/08/17 23:04:02;;;;;;;69.45;49.20;;;19.80;86.30;;;;;;5053072;28;20017;-45
2022/08/17 23:06:32;;;;;;;70.30;51.03;;;19.70;86.50;;;;;;5053107;28;20480;-47
2022/08/17 23:09:01;;;;;;;79.47;54.38;;;19.70;86.70;;;;;;5051462;28;20069;-46
2022/08/17 23:11:34;;;;;;;77.67;55.13;;;19.60;87.20;;;;;;5053170;28;20108;-47
2022/08/17 23:14:00;;;;;;;73.13;51.10;;;19.50;87.30;;;;;;5053151;28;20052;-45
2022/08/17 23:16:29;;;;;;;81.95;55.25;;;19.40;87.60;;;;;;5053378;28;20531;-46
2022/08/17 23:18:58;;;;;;;78.27;54.37;;;19.40;87.80;;;;;;5052822;28;20059;-47
2022/08/17 23:21:30;;;;;;;74.50;51.78;;;19.40;87.90;;;;;;5053156;28;20031;-47
2022/08/17 23:23:57;;;;;;;79.45;53.22;;;19.40;87.90;;;;;;5053092;28;20075;-47
2022/08/17 23:26:24;;;;;;;83.85;53.15;;;19.40;87.80;;;;;;5053206;28;20033;-46
2022/08/17 23:28:49;;;;;;;82.40;54.40;;;19.40;87.80;;;;;;5052752;28;20388;-47
2022/08/17 23:31:18;;;;;;;72.43;51.13;;;19.50;87.90;;;;;;5053277;28;20025;-46
2022/08/17 23:33:45;;;;;;;82.88;54.97;;;19.50;87.80;;;;;;5052971;28;20469;-46
2022/08/17 23:36:16;;;;;;;79.38;54.05;;;19.50;87.80;;;;;;5051611;28;20052;-46
2022/08/17 23:38:43;;;;;;;73.40;51.50;;;19.50;87.50;;;;;;5052833;28;20033;-47
2022/08/17 23:41:13;;;;;;;72.10;50.55;;;19.60;87.40;;;;;;5051258;28;20040;-47
2022/08/17 23:43:40;;;;;;;72.55;50.35;;;19.60;87.40;;;;;;5053267;28;20033;-50
2022/08/17 23:46:08;;;;;;;81.07;55.83;;;19.50;87.20;;;;;;5052861;28;20033;-48
2022/08/17 23:48:33;;;;;;;72.10;52.40;;;19.40;87.30;;;;;;5052532;28;20104;-48
2022/08/17 23:51:00;;;;;;;78.57;51.78;;;19.40;87.60;;;;;;5052604;28;20188;-51
2022/08/17 23:53:32;;;;;;;74.68;53.42;;;19.30;87.30;;;;;;5051268;28;20079;-47
2022/08/17 23:55:58;;;;;;;74.95;50.40;;;19.30;87.60;;;;;;5054158;28;20385;-46
2022/08/17 23:58:24;;;;;;;76.15;52.83;;;19.30;87.80;;;;;;5056430;28;20017;-48
